Time;durP1;ratioP1;P1;durP2;ratioP2;P2;SDS_P1;SDS_P2;PMS_P1;PMS_P2;Temp;Humidity;BMP_temperature;BMP_pressure;BME280_temperature;BME280_humidity;BME280_pressure;Samples;Min_cycle;Max_cycle;Signal;HPM_P1;HPM_P2
2022/08/30 00:02:15;;;;;;;0.00;0.00;;;;;;;20.39;55.28;101985.31;7358462;19;20582;-60
2022/08/30 00:04:43;;;;;;;0.00;0.00;;;;;;;20.34;55.60;101979.34;7367410;19;20028;-60
2022/08/30 00:07:11;;;;;;;0.00;0.00;;;;;;;20.42;55.84;101992.28;7368610;19;20561;-60
2022/08/30 00:09:37;;;;;;;0.00;0.00;;;;;;;20.39;57.42;101993.28;7368706;19;20019;-60
2022/08/30 00:12:05;;;;;;;0.00;0.00;;;;;;;20.38;56.46;101985.41;7369791;19;20018;-60
2022/08/30 00:14:31;;;;;;;0.00;0.00;;;;;;;20.36;56.78;101996.06;7367558;19;20018;-60
2022/08/30 00:16:58;;;;;;;0.00;0.00;;;;;;;20.38;56.34;101990.72;7370499;19;20021;-60
2022/08/30 00:19:24;;;;;;;0.00;0.00;;;;;;;20.35;56.66;101994.34;7368401;19;20002;-60
2022/08/30 00:21:49;;;;;;;0.00;0.00;;;;;;;20.35;57.08;101997.00;7370528;19;20018;-60
2022/08/30 00:24:15;;;;;;;0.00;0.00;;;;;;;20.35;57.47;102002.28;7368689;19;20100;-60
2022/08/30 00:26:40;;;;;;;0.00;0.00;;;;;;;20.34;57.54;102005.88;7370428;19;20010;-60
2022/08/30 00:29:08;;;;;;;0.05;0.05;;;;;;;20.34;57.15;102005.88;7369019;19;20014;-60
2022/08/30 00:31:33;;;;;;;0.00;0.00;;;;;;;20.33;57.09;101998.84;7366660;19;20023;-59
2022/08/30 00:34:02;;;;;;;0.00;0.00;;;;;;;20.36;57.08;102009.31;7369170;19;20007;-61
2022/08/30 00:36:30;;;;;;;0.00;0.00;;;;;;;20.34;57.03;102005.03;7366921;19;20010;-60
2022/08/30 00:38:55;;;;;;;0.00;0.00;;;;;;;20.33;58.06;101998.00;7369391;19;20028;-60
2022/08/30 00:41:21;;;;;;;0.00;0.00;;;;;;;20.24;58.54;101988.63;7366457;19;20053;-58
2022/08/30 00:43:47;;;;;;;0.00;0.00;;;;;;;20.29;58.34;101994.59;7369249;19;20029;-60
2022/08/30 00:46:12;;;;;;;0.00;0.00;;;;;;;20.26;58.14;102008.00;7368542;19;20019;-60
2022/08/30 00:48:43;;;;;;;0.05;0.05;;;;;;;20.28;58.11;102005.28;7366204;19;20029;-60
2022/08/30 00:51:15;;;;;;;0.00;0.00;;;;;;;20.22;57.69;102001.09;7367967;19;20810;-60
2022/08/30 00:53:45;;;;;;;0.00;0.00;;;;;;;20.25;57.79;102008.06;7366980;19;20851;-59
2022/08/30 00:56:12;;;;;;;0.00;0.00;;;;;;;20.23;58.54;102008.13;7368467;19;20476;-59
2022/08/30 00:58:43;;;;;;;0.10;0.10;;;;;;;20.24;58.48;102022.25;7366721;19;20022;-60
2022/08/30 01:01:09;;;;;;;0.00;0.00;;;;;;;20.20;58.86;102018.88;7367140;19;20021;-60
2022/08/30 01:03:37;;;;;;;0.10;0.10;;;;;;;20.20;58.92;102013.56;7370425;19;20021;-60
2022/08/30 01:06:04;;;;;;;0.00;0.00;;;;;;;20.20;58.84;102018.88;7366710;19;20017;-60
2022/08/30 01:08:29;;;;;;;0.00;0.00;;;;;;;20.14;59.06;102016.47;7367276;19;20022;-60
2022/08/30 01:10:56;;;;;;;0.00;0.00;;;;;;;20.09;58.83;102010.50;7366530;19;20023;-60
2022/08/30 01:13:25;;;;;;;0.00;0.00;;;;;;;20.20;58.53;102024.16;7367599;19;20017;-60
2022/08/30 01:15:55;;;;;;;0.10;0.10;;;;;;;20.19;58.11;102030.41;7367563;19;20030;-60
2022/08/30 01:18:26;;;;;;;0.05;0.05;;;;;;;20.20;58.45;102029.47;7368581;19;20018;-60
2022/08/30 01:21:09;;;;;;;0.00;0.00;;;;;;;20.21;57.39;102034.69;7367605;19;20032;-60
2022/08/30 01:23:42;;;;;;;0.05;0.05;;;;;;;20.20;59.10;102032.13;7367378;19;20015;-60
2022/08/30 01:26:08;;;;;;;0.00;0.00;;;;;;;20.13;59.07;102028.88;7365016;19;20086;-60
2022/08/30 01:28:34;;;;;;;0.00;0.00;;;;;;;20.16;58.75;102033.16;7369329;19;20041;-60
2022/08/30 01:31:00;;;;;;;0.00;0.00;;;;;;;20.13;58.71;102033.31;7366752;19;20014;-60
2022/08/30 01:33:26;;;;;;;0.00;0.00;;;;;;;20.06;58.68;102031.81;7367209;19;20507;-59
2022/08/30 01:35:55;;;;;;;0.00;0.00;;;;;;;20.10;59.25;102038.75;7366264;19;20010;-60
2022/08/30 01:38:26;;;;;;;0.00;0.00;;;;;;;20.02;58.13;102024.91;7369236;19;20031;-60
2022/08/30 01:41:00;;;;;;;0.00;0.00;;;;;;;20.03;58.36;102027.53;7365918;19;20781;-60
2022/08/30 01:43:26;;;;;;;0.00;0.00;;;;;;;20.02;58.90;102039.06;7367553;19;21007;-60
2022/08/30 01:45:52;;;;;;;0.00;0.00;;;;;;;20.00;58.61;102034.75;7367616;19;20061;-58
2022/08/30 01:48:19;;;;;;;0.00;0.00;;;;;;;19.97;59.15;102027.75;7366186;19;20134;-60
2022/08/30 01:50:48;;;;;;;0.00;0.00;;;;;;;19.95;58.75;102035.78;7364278;19;20051;-60
2022/08/30 01:53:17;;;;;;;0.00;0.00;;;;;;;19.93;58.52;102031.47;7367281;19;20022;-61
2022/08/30 01:55:43;;;;;;;0.00;0.00;;;;;;;19.89;58.54;102028.09;7367190;19;20010;-60
2022/08/30 01:58:08;;;;;;;0.00;0.00;;;;;;;19.86;59.62;102028.19;7355920;19;20043;-60
2022/08/30 02:00:36;;;;;;;0.00;0.00;;;;;;;19.83;59.23;102025.69;7363936;19;20018;-60
2022/08/30 02:03:05;;;;;;;0.00;0.00;;;;;;;19.80;59.57;102025.78;7355636;19;20127;-61
2022/08/30 02:05:30;;;;;;;0.00;0.00;;;;;;;19.77;59.31;102025.94;7363437;19;20407;-60
2022/08/30 02:07:56;;;;;;;0.00;0.00;;;;;;;19.73;59.54;102019.03;7363007;19;20013;-60
2022/08/30 02:10:24;;;;;;;0.00;0.00;;;;;;;19.71;59.43;102026.16;7357791;19;20034;-60
2022/08/30 02:12:49;;;;;;;0.00;0.00;;;;;;;19.68;59.28;102029.81;7363359;19;20022;-60
2022/08/30 02:15:15;;;;;;;0.00;0.00;;;;;;;19.66;59.16;102033.44;7362364;19;20018;-60
2022/08/30 02:17:41;;;;;;;0.00;0.00;;;;;;;19.62;59.39;102024.75;7363977;19;20023;-60
2022/08/30 02:20:10;;;;;;;0.00;0.00;;;;;;;19.60;59.71;102020.44;7365696;19;20017;-60
2022/08/30 02:22:36;;;;;;;0.00;0.00;;;;;;;19.57;59.61;102023.19;7363365;19;20014;-60
2022/08/30 02:25:11;;;;;;;0.00;0.00;;;;;;;19.56;58.77;102017.00;7365249;19;20018;-60
2022/08/30 02:27:39;;;;;;;0.00;0.00;;;;;;;19.54;59.41;102028.59;7361564;19;20053;-60
2022/08/30 02:30:09;;;;;;;0.00;0.00;;;;;;;19.50;59.27;102021.69;7362847;19;20467;-60
2022/08/30 02:32:37;;;;;;;0.00;0.00;;;;;;;19.48;59.12;102026.19;7361218;19;20017;-59
2022/08/30 02:35:05;;;;;;;0.00;0.00;;;;;;;19.43;59.47;102029.88;7362870;19;20011;-60
2022/08/30 02:37:33;;;;;;;0.00;0.00;;;;;;;19.40;59.51;102032.63;7362980;19;20022;-60
2022/08/30 02:39:58;;;;;;;0.00;0.00;;;;;;;19.39;59.46;102032.69;7362370;19;20018;-60
2022/08/30 02:42:23;;;;;;;0.00;0.00;;;;;;;19.32;59.65;102034.72;7363650;19;20050;-59
2022/08/30 02:44:49;;;;;;;0.00;0.00;;;;;;;19.31;59.61;102033.00;7362394;19;20010;-60
2022/08/30 02:47:14;;;;;;;0.00;0.00;;;;;;;19.28;59.47;102027.81;7364122;19;20017;-60
2022/08/30 02:49:40;;;;;;;0.00;0.00;;;;;;;19.26;59.73;102032.31;7364537;19;20019;-60
2022/08/30 02:52:05;;;;;;;0.00;0.00;;;;;;;19.23;59.75;102029.75;7365309;19;20027;-60
2022/08/30 02:54:32;;;;;;;0.00;0.00;;;;;;;19.19;59.63;102028.16;7361530;19;20093;-59
2022/08/30 02:56:57;;;;;;;0.00;0.00;;;;;;;19.16;59.57;102028.28;7364042;19;20431;-60
2022/08/30 02:59:23;;;;;;;0.00;0.00;;;;;;;19.14;60.12;102032.75;7359984;19;20014;-59
2022/08/30 03:01:51;;;;;;;0.00;0.00;;;;;;;19.06;59.89;102024.22;7363942;19;20010;-60
2022/08/30 03:04:16;;;;;;;0.00;0.00;;;;;;;19.09;59.55;102034.72;7352020;19;20018;-59
2022/08/30 03:06:42;;;;;;;0.00;0.00;;;;;;;19.07;59.42;102033.91;7360192;19;20783;-59
2022/08/30 03:09:07;;;;;;;0.00;0.00;;;;;;;18.93;59.53;102016.75;7362983;19;20014;-60
2022/08/30 03:11:36;;;;;;;0.00;0.00;;;;;;;18.97;59.86;102024.59;7364041;19;20027;-60
2022/08/30 03:14:04;;;;;;;0.00;0.00;;;;;;;18.98;59.59;102026.31;7361947;19;20039;-60
2022/08/30 03:16:29;;;;;;;0.00;0.00;;;;;;;18.93;59.89;102022.03;7363744;19;20014;-59
2022/08/30 03:18:55;;;;;;;0.00;0.00;;;;;;;18.89;60.33;102019.56;7356327;19;20030;-60
2022/08/30 03:21:22;;;;;;;0.00;0.00;;;;;;;18.88;60.17;102023.13;7363207;19;20049;-60
2022/08/30 03:23:50;;;;;;;;;;;;;;;18.89;57.71;102031.00;7363159;19;20010;-60
2022/08/30 03:26:15;;;;;;;0.00;0.00;;;;;;;18.84;60.50;102034.72;7365145;19;20332;-60
2022/08/30 03:28:42;;;;;;;0.00;0.00;;;;;;;18.81;60.22;102027.78;7361647;19;20017;-60
2022/08/30 03:31:08;;;;;;;0.00;0.00;;;;;;;18.78;60.70;102033.19;7363979;19;20010;-60
2022/08/30 03:33:34;;;;;;;0.00;0.00;;;;;;;18.69;60.09;102017.63;7362389;19;20053;-60
2022/08/30 03:36:02;;;;;;;0.00;0.00;;;;;;;18.73;60.54;102023.69;7363989;19;20014;-60
2022/08/30 03:38:30;;;;;;;0.00;0.00;;;;;;;18.70;60.51;102019.34;7359211;19;20365;-60
2022/08/30 03:40:55;;;;;;;0.00;0.00;;;;;;;18.67;60.33;102024.72;7363488;19;20047;-60
2022/08/30 03:43:23;;;;;;;0.00;0.00;;;;;;;18.65;60.29;102023.91;7362489;19;20081;-60
2022/08/30 03:45:49;;;;;;;0.00;0.00;;;;;;;18.63;60.53;102023.97;7364285;19;20019;-60
2022/08/30 03:48:17;;;;;;;0.00;0.00;;;;;;;18.60;60.48;102023.19;7364209;19;20007;-60
2022/08/30 03:50:45;;;;;;;0.00;0.00;;;;;;;18.60;60.55;102033.78;7364484;19;20036;-60
2022/08/30 03:53:10;;;;;;;0.00;0.00;;;;;;;18.43;60.35;102000.00;7363965;19;20814;-59
2022/08/30 03:55:36;;;;;;;0.00;0.00;;;;;;;18.56;60.83;102024.25;7364112;19;20017;-60
2022/08/30 03:58:01;;;;;;;0.00;0.00;;;;;;;18.53;60.85;102027.84;7362091;19;20024;-60
2022/08/30 04:00:27;;;;;;;0.00;0.00;;;;;;;18.46;60.82;102020.19;7361512;19;20040;-60
2022/08/30 04:02:58;;;;;;;0.00;0.00;;;;;;;18.50;60.98;102037.66;7364856;19;20006;-59
2022/08/30 04:05:23;;;;;;;0.00;0.00;;;;;;;18.48;60.83;102037.72;7364082;19;20479;-59
2022/08/30 04:07:48;;;;;;;0.00;0.00;;;;;;;18.46;60.69;102034.28;7361762;19;20046;-60
2022/08/30 04:10:14;;;;;;;0.00;0.00;;;;;;;18.45;60.78;102039.59;7361719;19;20014;-60
2022/08/30 04:12:43;;;;;;;0.00;0.00;;;;;;;18.45;60.81;102037.84;7364619;19;20014;-60
2022/08/30 04:15:10;;;;;;;0.00;0.00;;;;;;;18.41;61.01;102041.50;7361219;19;20035;-60
2022/08/30 04:17:44;;;;;;;0.00;0.00;;;;;;;18.38;61.32;102031.88;7363626;19;20034;-58
2022/08/30 04:20:12;;;;;;;0.00;0.00;;;;;;;18.39;60.75;102040.69;7361273;19;20475;-60
2022/08/30 04:22:42;;;;;;;0.00;0.00;;;;;;;18.26;60.95;102024.38;7363577;19;20073;-60
2022/08/30 04:25:08;;;;;;;0.00;0.00;;;;;;;18.34;61.63;102043.47;7359443;19;20035;-59
2022/08/30 04:27:33;;;;;;;0.00;0.00;;;;;;;18.17;61.67;102008.81;7363883;19;20014;-61
2022/08/30 04:29:59;;;;;;;0.00;0.00;;;;;;;18.28;61.42;102032.25;7359035;19;20010;-59
2022/08/30 04:32:24;;;;;;;0.00;0.00;;;;;;;18.29;61.07;102040.13;7362627;19;20018;-60
2022/08/30 04:34:55;;;;;;;0.00;0.00;;;;;;;18.30;60.95;102038.38;7360901;19;20604;-60
2022/08/30 04:37:20;;;;;;;0.00;0.00;;;;;;;18.26;61.55;102036.75;7361693;19;20034;-60
2022/08/30 04:39:47;;;;;;;0.00;0.00;;;;;;;18.25;61.69;102042.91;7358699;19;20054;-60
2022/08/30 04:42:15;;;;;;;0.07;0.07;;;;;;;18.24;60.91;102043.84;7361694;19;21011;-60
2022/08/30 04:44:40;;;;;;;0.00;0.00;;;;;;;18.20;61.63;102044.84;7359563;19;20078;-59
2022/08/30 04:47:09;;;;;;;0.00;0.00;;;;;;;18.19;61.42;102041.34;7362797;19;20090;-60
2022/08/30 04:49:40;;;;;;;0.00;0.00;;;;;;;18.06;61.68;102027.69;7362183;19;20010;-60
2022/08/30 04:52:07;;;;;;;0.00;0.00;;;;;;;18.15;61.52;102050.31;7370846;19;20018;-60
2022/08/30 04:54:33;;;;;;;0.00;0.00;;;;;;;18.13;61.70;102054.78;7366750;19;20007;-60
2022/08/30 04:56:59;;;;;;;0.00;0.00;;;;;;;18.11;62.04;102056.63;7368372;19;20382;-60
2022/08/30 04:59:27;;;;;;;0.00;0.00;;;;;;;18.08;61.46;102049.63;7367713;19;20122;-60
2022/08/30 05:01:53;;;;;;;0.00;0.00;;;;;;;18.08;62.20;102056.69;7370245;19;20484;-60
2022/08/30 05:04:18;;;;;;;0.00;0.00;;;;;;;18.05;61.59;102057.69;7367818;19;20010;-60
2022/08/30 05:06:46;;;;;;;0.00;0.00;;;;;;;18.03;61.26;102063.91;7367204;19;20054;-59
2022/08/30 05:09:11;;;;;;;;;;;;;;;18.05;59.06;102064.75;7364752;19;20023;-59
2022/08/30 05:11:42;;;;;;;0.00;0.00;;;;;;;17.97;61.44;102056.19;7369256;19;19917;-60
2022/08/30 05:14:11;;;;;;;0.00;0.00;;;;;;;17.97;61.55;102072.03;7367332;19;20002;-61
2022/08/30 05:16:36;;;;;;;0.00;0.00;;;;;;;17.94;61.62;102069.47;7368828;19;20010;-60
2022/08/30 05:19:04;;;;;;;0.00;0.00;;;;;;;17.91;62.01;102081.03;7366418;19;20013;-60
2022/08/30 05:21:34;;;;;;;0.00;0.00;;;;;;;17.89;61.24;102073.16;7366892;19;20007;-60
2022/08/30 05:24:02;;;;;;;0.00;0.00;;;;;;;17.77;61.78;102072.66;7367855;19;20455;-60
2022/08/30 05:26:31;;;;;;;0.00;0.00;;;;;;;17.84;62.02;102092.69;7365990;19;20022;-60
2022/08/30 05:29:02;;;;;;;0.00;0.00;;;;;;;17.83;61.69;102096.25;7367904;19;20027;-60
2022/08/30 05:31:46;;;;;;;0.00;0.00;;;;;;;17.81;61.57;102106.88;7367217;19;20006;-60
2022/08/30 05:34:12;;;;;;;0.00;0.00;;;;;;;17.78;61.75;102109.59;7367187;19;20525;-60
2022/08/30 05:36:37;;;;;;;0.00;0.00;;;;;;;17.64;62.27;102095.94;7368256;19;20082;-60
2022/08/30 05:39:08;;;;;;;0.00;0.00;;;;;;;17.76;61.63;102111.44;7368538;19;20029;-60
2022/08/30 05:41:34;;;;;;;0.00;0.00;;;;;;;17.75;62.18;102112.34;7367673;19;20480;-60
2022/08/30 05:44:03;;;;;;;0.00;0.00;;;;;;;17.66;62.25;102099.38;7367107;19;20011;-60
2022/08/30 05:46:32;;;;;;;0.00;0.00;;;;;;;17.76;62.24;102113.22;7367665;19;20493;-60
2022/08/30 05:48:58;;;;;;;0.00;0.00;;;;;;;17.76;62.06;102122.00;7367605;19;20018;-61
2022/08/30 05:51:28;;;;;;;0.00;0.00;;;;;;;17.77;61.96;102123.72;7364435;19;20688;-59
2022/08/30 05:53:57;;;;;;;0.00;0.00;;;;;;;17.71;62.25;102110.69;7367744;19;20341;-60
2022/08/30 05:56:26;;;;;;;0.00;0.00;;;;;;;17.79;62.29;102114.00;7364458;19;20014;-60
2022/08/30 05:58:56;;;;;;;0.00;0.00;;;;;;;17.78;62.11;102103.44;7356830;19;20086;-60
2022/08/30 06:01:22;;;;;;;0.00;0.00;;;;;;;17.80;62.11;102113.06;7360528;19;20030;-60
2022/08/30 06:03:47;;;;;;;0.00;0.00;;;;;;;17.81;61.98;102121.88;7362562;19;20027;-60
2022/08/30 06:06:13;;;;;;;0.00;0.00;;;;;;;17.81;62.41;102117.44;7362984;19;20065;-60
2022/08/30 06:08:38;;;;;;;0.10;0.10;;;;;;;17.81;62.46;102106.88;7363940;19;20010;-60
2022/08/30 06:11:09;;;;;;;0.00;0.00;;;;;;;17.80;62.45;102110.44;7364103;19;20018;-60
2022/08/30 06:13:36;;;;;;;0.00;0.00;;;;;;;17.79;61.82;102113.09;7361847;19;20027;-60
2022/08/30 06:16:04;;;;;;;0.10;0.10;;;;;;;17.80;62.42;102117.50;7361806;19;20018;-60
2022/08/30 06:18:30;;;;;;;0.00;0.00;;;;;;;17.77;62.31;102113.16;7364659;19;20021;-60
2022/08/30 06:21:00;;;;;;;0.00;0.00;;;;;;;17.81;62.38;102127.16;7364555;19;20031;-60
2022/08/30 06:23:28;;;;;;;0.00;0.00;;;;;;;17.79;62.46;102124.56;7363256;19;20010;-60
2022/08/30 06:25:54;;;;;;;0.00;0.00;;;;;;;17.79;62.09;102124.56;7361586;19;20023;-59
2022/08/30 06:28:19;;;;;;;0.00;0.00;;;;;;;17.81;62.13;102120.09;7364301;19;20024;-60
2022/08/30 06:30:45;;;;;;;0.00;0.00;;;;;;;17.81;62.12;102121.88;7362274;19;20750;-59
2022/08/30 06:33:10;;;;;;;0.00;0.00;;;;;;;17.81;62.56;102128.00;7364039;19;20530;-60
2022/08/30 06:35:36;;;;;;;0.00;0.00;;;;;;;17.81;62.62;102133.31;7362833;19;20034;-60
2022/08/30 06:38:02;;;;;;;0.00;0.00;;;;;;;17.82;62.63;102129.75;7362734;19;20021;-60
2022/08/30 06:40:28;;;;;;;0.00;0.00;;;;;;;17.82;62.45;102137.66;7357765;19;20806;-59
2022/08/30 06:42:56;;;;;;;0.00;0.00;;;;;;;17.84;62.79;102134.97;7365705;19;20011;-59
2022/08/30 06:45:31;;;;;;;0.00;0.00;;;;;;;17.87;61.89;102141.03;7357728;19;20010;-61
2022/08/30 06:48:03;;;;;;;0.03;0.03;;;;;;;17.87;62.06;102143.69;7358723;19;20010;-60
2022/08/30 06:50:28;;;;;;;0.00;0.00;;;;;;;17.78;62.57;102120.16;7361338;19;20082;-60
2022/08/30 06:52:58;;;;;;;0.00;0.00;;;;;;;17.89;63.08;102141.88;7365261;19;20013;-60
2022/08/30 06:55:26;;;;;;;0.00;0.00;;;;;;;17.91;63.27;102138.31;7361560;19;20010;-61
2022/08/30 06:57:51;;;;;;;0.00;0.00;;;;;;;17.90;63.39;102142.75;7359039;19;20014;-60
2022/08/30 07:00:19;;;;;;;0.00;0.00;;;;;;;17.92;63.56;102146.19;7363982;19;20520;-60
2022/08/30 07:02:49;;;;;;;0.00;0.00;;;;;;;17.94;63.18;102143.50;7354097;19;20006;-60
2022/08/30 07:05:20;;;;;;;0.00;0.00;;;;;;;17.93;63.40;102152.34;7353775;19;20018;-60
2022/08/30 07:07:46;;;;;;;0.00;0.00;;;;;;;17.86;62.89;102136.66;7361184;19;20074;-60
2022/08/30 07:10:13;;;;;;;0.00;0.00;;;;;;;17.97;62.90;102151.34;7355784;19;20089;-61
2022/08/30 07:12:39;;;;;;;0.00;0.00;;;;;;;18.03;62.72;102159.06;7340682;19;20755;-59
2022/08/30 07:15:12;;;;;;;0.00;0.00;;;;;;;18.04;62.19;102151.09;7354988;19;20018;-59
2022/08/30 07:20:22;;;;;;;0.00;0.00;;;;;;;18.08;62.11;102146.59;7348645;19;20021;-60
2022/08/30 07:22:48;;;;;;;0.00;0.00;;;;;;;18.07;61.64;102150.13;7344757;19;20470;-60
2022/08/30 07:25:14;;;;;;;0.00;0.00;;;;;;;18.09;61.26;102150.94;7346382;19;20039;-60
2022/08/30 07:27:40;;;;;;;0.00;0.00;;;;;;;18.10;61.15;102155.34;7350310;19;22217;-60
2022/08/30 07:30:07;;;;;;;0.00;0.00;;;;;;;18.10;60.94;102161.50;7352062;19;20467;-60
2022/08/30 07:32:32;;;;;;;0.00;0.00;;;;;;;18.10;60.83;102160.63;7358545;19;20371;-60
2022/08/30 07:34:58;;;;;;;0.00;0.00;;;;;;;18.08;61.09;102157.16;7357608;19;20014;-60
2022/08/30 07:37:24;;;;;;;0.00;0.00;;;;;;;18.13;60.88;102165.81;7359246;19;20022;-60
2022/08/30 07:39:50;;;;;;;0.00;0.00;;;;;;;18.16;61.15;102176.31;7350929;19;20010;-60
2022/08/30 07:42:18;;;;;;;0.00;0.00;;;;;;;18.22;60.94;102184.03;7357859;19;20014;-60
2022/08/30 07:44:43;;;;;;;0.00;0.00;;;;;;;18.25;60.79;102181.31;7353441;19;20109;-60
2022/08/30 07:47:10;;;;;;;0.08;0.08;;;;;;;18.29;60.55;102188.22;7354842;19;20459;-59
2022/08/30 07:49:39;;;;;;;0.00;0.00;;;;;;;18.37;60.45;102188.00;7361126;19;20831;-59
2022/08/30 07:52:07;;;;;;;0.00;0.00;;;;;;;18.42;60.71;102179.00;7357891;19;20007;-60
2022/08/30 07:54:33;;;;;;;0.00;0.00;;;;;;;18.51;60.29;102183.13;7346043;19;20030;-60
2022/08/30 07:56:58;;;;;;;0.00;0.00;;;;;;;18.60;60.16;102188.13;7354654;19;20737;-60
2022/08/30 07:59:24;;;;;;;0.00;0.00;;;;;;;18.71;60.01;102179.88;7354340;19;20973;-59
2022/08/30 08:01:49;;;;;;;0.00;0.00;;;;;;;18.82;59.85;102183.00;7355379;19;20035;-59
2022/08/30 08:04:16;;;;;;;0.00;0.00;;;;;;;18.90;59.65;102188.03;7361631;19;20018;-59
2022/08/30 08:06:44;;;;;;;;;;;;;;;19.05;58.42;102190.16;7360479;19;20010;-60
2022/08/30 08:09:09;;;;;;;0.00;0.00;;;;;;;18.98;59.25;102177.19;7358756;19;19937;-59
2022/08/30 08:11:42;;;;;;;0.00;0.00;;;;;;;19.10;58.55;102179.41;7360658;19;20082;-60
2022/08/30 08:14:08;;;;;;;0.00;0.00;;;;;;;19.13;58.19;102192.56;7353860;19;20014;-60
2022/08/30 08:16:41;;;;;;;0.00;0.00;;;;;;;19.17;57.58;102195.06;7358144;19;21573;-60
2022/08/30 08:19:07;;;;;;;0.00;0.00;;;;;;;19.19;57.17;102190.56;7358752;19;20006;-60
2022/08/30 08:21:33;;;;;;;0.10;0.10;;;;;;;19.17;56.45;102194.19;7359987;19;20056;-60
2022/08/30 08:24:01;;;;;;;0.00;0.00;;;;;;;19.23;56.29;102199.25;7358992;19;20019;-59
2022/08/30 08:26:27;;;;;;;0.00;0.00;;;;;;;19.24;56.26;102197.47;7366620;19;20040;-60
2022/08/30 08:28:52;;;;;;;0.00;0.00;;;;;;;19.25;55.19;102202.72;7369428;19;21281;-60
2022/08/30 08:31:26;;;;;;;0.00;0.00;;;;;;;19.28;55.03;102209.69;7362025;19;20014;-60
2022/08/30 08:33:54;;;;;;;0.00;0.00;;;;;;;19.26;54.64;102209.75;7367769;19;20082;-60
2022/08/30 08:36:20;;;;;;;0.00;0.00;;;;;;;19.28;54.57;102213.22;7364461;19;20010;-59
2022/08/30 08:38:45;;;;;;;0.00;0.00;;;;;;;19.33;54.11;102211.25;7369119;19;20035;-60
2022/08/30 08:41:17;;;;;;;0.10;0.10;;;;;;;19.45;54.85;102209.97;7361491;19;20086;-59
2022/08/30 08:43:43;;;;;;;0.00;0.00;;;;;;;19.53;53.55;102202.59;7364873;19;20007;-60
2022/08/30 08:46:36;;;;;;;0.00;0.00;;;;;;;19.79;54.66;102214.94;7369304;19;20040;-59
2022/08/30 08:49:07;;;;;;;0.00;0.00;;;;;;;20.01;52.86;102208.81;7265580;19;2004555;-60
2022/08/30 08:54:37;;;;;;;0.00;0.00;;;;;;;20.51;52.58;102220.13;7365978;19;20031;-60
2022/08/30 08:57:03;;;;;;;0.10;0.10;;;;;;;20.65;51.60;102201.00;7362990;19;20014;-60
2022/08/30 08:59:28;;;;;;;0.00;0.00;;;;;;;20.98;50.87;102212.88;7360764;19;20520;-60
2022/08/30 09:02:00;;;;;;;0.00;0.00;;;;;;;21.31;50.46;102212.38;7364371;19;20014;-60
2022/08/30 09:04:32;;;;;;;0.00;0.00;;;;;;;21.58;50.25;102209.44;7360496;19;20006;-60
2022/08/30 09:07:06;;;;;;;0.00;0.00;;;;;;;21.85;49.50;102202.88;7363975;19;20022;-60
2022/08/30 09:09:36;;;;;;;0.10;0.10;;;;;;;22.08;48.81;102193.81;7362388;19;20029;-60
2022/08/30 09:12:04;;;;;;;0.00;0.00;;;;;;;22.40;48.98;102210.06;7363537;19;20010;-60
2022/08/30 09:14:35;;;;;;;0.00;0.00;;;;;;;22.68;48.55;102205.13;7363407;19;20037;-60
2022/08/30 09:17:05;;;;;;;0.00;0.00;;;;;;;22.97;46.97;102211.69;7361402;19;20010;-60
2022/08/30 09:19:52;;;;;;;0.00;0.00;;;;;;;23.37;49.58;102206.09;7362099;19;20039;-60
2022/08/30 09:22:32;;;;;;;0.00;0.00;;;;;;;23.56;46.88;102214.84;7364154;19;20017;-60
2022/08/30 09:25:09;;;;;;;0.00;0.00;;;;;;;23.81;46.69;102209.94;7362577;19;20015;-60
2022/08/30 09:27:40;;;;;;;0.00;0.00;;;;;;;24.05;45.41;102207.75;7362160;19;20014;-60
2022/08/30 09:30:05;;;;;;;0.10;0.10;;;;;;;24.23;43.50;102199.63;7357637;19;20042;-60
2022/08/30 09:32:54;;;;;;;0.00;0.00;;;;;;;24.62;46.53;102209.03;7360832;19;20077;-60
2022/08/30 09:35:33;;;;;;;0.03;0.03;;;;;;;24.73;43.13;102193.22;7259250;19;2004530;-60
2022/08/30 09:38:09;;;;;;;0.00;0.00;;;;;;;25.15;44.91;102205.06;7357580;19;20014;-60
2022/08/30 09:40:42;;;;;;;0.00;0.00;;;;;;;25.35;42.14;102218.06;7359527;19;20770;-60
2022/08/30 09:43:18;;;;;;;0.00;0.00;;;;;;;25.64;41.63;102202.88;7360486;19;20015;-60
2022/08/30 09:46:06;;;;;;;0.10;0.10;;;;;;;26.03;43.72;102202.22;7361359;19;20010;-60
2022/08/30 09:48:39;;;;;;;0.00;0.00;;;;;;;26.28;40.97;102204.16;7361616;19;20471;-60
2022/08/30 09:51:11;;;;;;;0.00;0.00;;;;;;;26.65;42.96;102207.97;7362607;19;20025;-61
2022/08/30 09:53:51;;;;;;;0.00;0.00;;;;;;;27.00;42.14;102217.28;7359881;19;20006;-60
2022/08/30 09:56:37;;;;;;;0.08;0.08;;;;;;;27.39;41.34;102229.81;7360349;19;20086;-60
2022/08/30 09:59:21;;;;;;;0.00;0.00;;;;;;;27.56;38.10;102226.81;7360451;19;20044;-60
2022/08/30 10:01:55;;;;;;;0.00;0.00;;;;;;;27.98;40.12;102227.44;7363310;19;20019;-58
2022/08/30 10:04:40;;;;;;;0.10;0.10;;;;;;;28.32;40.77;102224.97;7361300;19;20090;-58
2022/08/30 10:07:21;;;;;;;0.10;0.10;;;;;;;28.63;41.00;102224.44;7357809;19;21018;-59
2022/08/30 10:09:46;;;;;;;0.00;0.00;;;;;;;28.70;37.48;102231.09;7361744;19;20558;-59
2022/08/30 10:12:38;;;;;;;0.05;0.05;;;;;;;29.14;40.04;102234.91;7362276;19;20010;-58
2022/08/30 10:15:22;;;;;;;0.10;0.10;;;;;;;29.24;38.65;102232.38;7255559;19;2004323;-57
2022/08/30 10:18:09;;;;;;;0.10;0.10;;;;;;;29.28;37.34;102224.94;7360682;19;20006;-58
2022/08/30 10:20:40;;;;;;;0.00;0.00;;;;;;;29.30;36.54;102229.22;7358491;19;20014;-58
2022/08/30 10:23:10;;;;;;;0.00;0.00;;;;;;;29.53;37.20;102240.88;7360383;19;20077;-58
2022/08/30 10:25:49;;;;;;;0.10;0.10;;;;;;;29.65;37.03;102228.28;7359409;19;20455;-58
2022/08/30 10:28:42;;;;;;;0.00;0.00;;;;;;;29.81;38.05;102230.66;7362030;19;20603;-58
2022/08/30 10:31:40;;;;;;;0.00;0.00;;;;;;;29.96;38.36;102226.72;7257428;19;2004401;-58
2022/08/30 10:34:14;;;;;;;0.00;0.00;;;;;;;30.08;37.16;102228.41;7248761;19;2004460;-58
2022/08/30 10:36:45;;;;;;;0.00;0.00;;;;;;;30.31;36.61;102225.69;7359692;19;20115;-58
2022/08/30 10:39:21;;;;;;;0.00;0.00;;;;;;;30.57;36.25;102240.56;7360653;19;20534;-58
2022/08/30 10:41:57;;;;;;;0.00;0.00;;;;;;;30.90;36.08;102230.66;7361625;19;20033;-58
2022/08/30 10:44:30;;;;;;;0.10;0.10;;;;;;;31.23;35.72;102233.16;7353835;19;20018;-58
2022/08/30 10:47:05;;;;;;;0.00;0.00;;;;;;;31.49;34.87;102224.69;7357490;19;20459;-58
2022/08/30 10:49:43;;;;;;;0.00;0.00;;;;;;;31.74;35.65;102224.22;7358570;19;20656;-58
2022/08/30 10:52:39;;;;;;;0.05;0.05;;;;;;;32.01;36.09;102220.06;7360992;19;20007;-58
2022/08/30 10:55:20;;;;;;;0.08;0.08;;;;;;;32.24;34.24;102229.66;7256517;19;2004506;-58
2022/08/30 10:57:46;;;;;;;0.10;0.10;;;;;;;32.12;32.68;102217.25;7356433;19;20711;-58
2022/08/30 11:00:21;;;;;;;0.00;0.00;;;;;;;32.20;32.85;102225.53;7360962;19;20013;-58
2022/08/30 11:03:05;;;;;;;0.00;0.00;;;;;;;32.00;31.63;102218.38;7357658;19;20006;-58
2022/08/30 11:05:37;;;;;;;0.10;0.10;;;;;;;31.80;31.26;102212.00;7354594;19;20039;-58
2022/08/30 11:08:55;;;;;;;0.10;0.10;;;;;;;31.72;34.63;102209.97;7357725;19;20002;-58
2022/08/30 11:11:39;;;;;;;0.00;0.00;;;;;;;31.50;33.98;102210.19;7258909;19;2004641;-57
2022/08/30 11:14:12;;;;;;;0.00;0.00;;;;;;;31.25;33.18;102206.88;7360232;19;20014;-58
2022/08/30 11:16:41;;;;;;;0.10;0.10;;;;;;;31.32;33.03;102206.38;7356979;19;20070;-58
2022/08/30 11:19:39;;;;;;;0.00;0.00;;;;;;;31.76;35.28;102206.03;7359471;19;20025;-58
2022/08/30 11:22:15;;;;;;;0.10;0.10;;;;;;;32.14;33.91;102208.97;7256821;19;2004627;-56
2022/08/30 11:24:56;;;;;;;0.00;0.00;;;;;;;32.69;34.81;102210.22;7354277;19;20129;-57
2022/08/30 11:27:51;;;;;;;0.00;0.00;;;;;;;33.23;34.53;102225.00;7361522;19;20007;-58
2022/08/30 11:30:42;;;;;;;0.10;0.10;;;;;;;33.79;33.49;102215.97;7259317;19;2004562;-58
2022/08/30 11:33:11;;;;;;;0.10;0.10;;;;;;;34.09;30.61;102200.44;7259546;19;2004448;-58
2022/08/30 11:35:43;;;;;;;0.00;0.00;;;;;;;34.53;31.43;102214.13;7360864;19;20017;-58
2022/08/30 11:38:27;;;;;;;0.00;0.00;;;;;;;34.97;30.26;102204.16;7360193;19;20010;-58
2022/08/30 11:40:56;;;;;;;0.00;0.00;;;;;;;35.15;27.83;102208.72;7362220;19;20040;-57
2022/08/30 11:43:34;;;;;;;0.00;0.00;;;;;;;35.67;29.35;102216.84;7352529;19;20006;-58